sensor_id;sensor_type;location;lat;lon;timestamp;P1;durP1;ratioP1;P2;durP2;ratioP2
74347;SDS011;62778;50.406;10.008;2022-09-09T00:00:16;4.25;;;1.25;;
74347;SDS011;62778;50.406;10.008;2022-09-09T00:02:29;5.47;;;1.50;;
74347;SDS011;62778;50.406;10.008;2022-09-09T00:03:26;5.20;;;1.20;;
74347;SDS011;62778;50.406;10.008;2022-09-09T00:04:25;5.40;;;1.30;;
74347;SDS011;62778;50.406;10.008;2022-09-09T00:06:28;5.18;;;1.58;;
74347;SDS011;62778;50.406;10.008;2022-09-09T00:08:37;4.80;;;1.50;;
74347;SDS011;62778;50.406;10.008;2022-09-09T00:09:46;6.43;;;1.45;;
74347;SDS011;62778;50.406;10.008;2022-09-09T00:10:44;5.63;;;1.50;;
74347;SDS011;62778;50.406;10.008;2022-09-09T00:11:43;4.10;;;1.50;;
74347;SDS011;62778;50.406;10.008;2022-09-09T00:15:00;6.55;;;1.52;;
74347;SDS011;62778;50.406;10.008;2022-09-09T00:17:51;4.22;;;1.30;;
74347;SDS011;62778;50.406;10.008;2022-09-09T00:18:31;5.78;;;1.40;;
74347;SDS011;62778;50.406;10.008;2022-09-09T00:19:45;5.28;;;1.30;;
74347;SDS011;62778;50.406;10.008;2022-09-09T00:20:58;5.38;;;1.42;;
74347;SDS011;62778;50.406;10.008;2022-09-09T00:22:02;5.05;;;1.38;;
74347;SDS011;62778;50.406;10.008;2022-09-09T00:23:24;5.80;;;1.52;;
74347;SDS011;62778;50.406;10.008;2022-09-09T00:24:32;4.83;;;1.53;;
74347;SDS011;62778;50.406;10.008;2022-09-09T00:26:02;4.35;;;1.33;;
74347;SDS011;62778;50.406;10.008;2022-09-09T00:27:07;5.68;;;1.50;;
74347;SDS011;62778;50.406;10.008;2022-09-09T00:28:18;5.18;;;1.45;;
74347;SDS011;62778;50.406;10.008;2022-09-09T00:29:23;5.55;;;1.38;;
74347;SDS011;62778;50.406;10.008;2022-09-09T00:30:26;4.53;;;1.35;;
74347;SDS011;62778;50.406;10.008;2022-09-09T00:31:25;4.82;;;1.30;;
74347;SDS011;62778;50.406;10.008;2022-09-09T00:32:22;4.10;;;1.15;;
74347;SDS011;62778;50.406;10.008;2022-09-09T00:33:19;4.45;;;1.30;;
74347;SDS011;62778;50.406;10.008;2022-09-09T00:34:21;4.13;;;1.05;;
74347;SDS011;62778;50.406;10.008;2022-09-09T00:35:22;4.10;;;1.10;;
74347;SDS011;62778;50.406;10.008;2022-09-09T00:36:23;5.00;;;1.15;;
74347;SDS011;62778;50.406;10.008;2022-09-09T00:37:21;4.30;;;1.10;;
74347;SDS011;62778;50.406;10.008;2022-09-09T00:38:40;4.68;;;1.20;;
74347;SDS011;62778;50.406;10.008;2022-09-09T00:39:47;4.63;;;1.10;;
74347;SDS011;62778;50.406;10.008;2022-09-09T00:40:52;5.57;;;1.30;;
74347;SDS011;62778;50.406;10.008;2022-09-09T00:43:26;4.15;;;1.08;;
74347;SDS011;62778;50.406;10.008;2022-09-09T00:44:31;4.47;;;1.23;;
74347;SDS011;62778;50.406;10.008;2022-09-09T00:48:02;4.03;;;1.00;;
74347;SDS011;62778;50.406;10.008;2022-09-09T00:52:36;5.10;;;1.33;;
74347;SDS011;62778;50.406;10.008;2022-09-09T00:53:38;4.40;;;1.08;;
74347;SDS011;62778;50.406;10.008;2022-09-09T00:58:18;4.43;;;1.10;;
74347;SDS011;62778;50.406;10.008;2022-09-09T00:59:21;5.07;;;1.20;;
74347;SDS011;62778;50.406;10.008;2022-09-09T01:00:33;4.40;;;1.15;;
74347;SDS011;62778;50.406;10.008;2022-09-09T01:01:33;4.03;;;1.20;;
74347;SDS011;62778;50.406;10.008;2022-09-09T01:02:44;3.67;;;1.00;;
74347;SDS011;62778;50.406;10.008;2022-09-09T01:03:47;3.78;;;0.93;;
74347;SDS011;62778;50.406;10.008;2022-09-09T01:04:48;5.15;;;1.27;;
74347;SDS011;62778;50.406;10.008;2022-09-09T01:05:54;4.73;;;1.20;;
74347;SDS011;62778;50.406;10.008;2022-09-09T01:07:16;3.83;;;1.30;;
74347;SDS011;62778;50.406;10.008;2022-09-09T01:10:52;3.63;;;1.13;;
74347;SDS011;62778;50.406;10.008;2022-09-09T01:12:55;5.88;;;1.30;;
74347;SDS011;62778;50.406;10.008;2022-09-09T01:14:00;4.50;;;1.00;;
74347;SDS011;62778;50.406;10.008;2022-09-09T01:16:08;4.40;;;1.00;;
74347;SDS011;62778;50.406;10.008;2022-09-09T01:17:11;4.32;;;1.10;;
74347;SDS011;62778;50.406;10.008;2022-09-09T01:18:13;4.50;;;1.10;;
74347;SDS011;62778;50.406;10.008;2022-09-09T01:19:30;4.57;;;1.17;;
74347;SDS011;62778;50.406;10.008;2022-09-09T01:20:45;4.10;;;1.30;;
74347;SDS011;62778;50.406;10.008;2022-09-09T01:21:55;4.30;;;1.48;;
74347;SDS011;62778;50.406;10.008;2022-09-09T01:23:07;5.07;;;1.55;;
74347;SDS011;62778;50.406;10.008;2022-09-09T01:26:22;5.03;;;1.20;;
74347;SDS011;62778;50.406;10.008;2022-09-09T01:27:21;3.70;;;1.00;;
74347;SDS011;62778;50.406;10.008;2022-09-09T01:28:22;4.70;;;1.13;;
74347;SDS011;62778;50.406;10.008;2022-09-09T01:29:21;4.78;;;1.30;;
74347;SDS011;62778;50.406;10.008;2022-09-09T01:30:17;6.00;;;1.50;;
74347;SDS011;62778;50.406;10.008;2022-09-09T01:31:15;5.97;;;1.40;;
74347;SDS011;62778;50.406;10.008;2022-09-09T01:33:41;4.68;;;1.10;;
74347;SDS011;62778;50.406;10.008;2022-09-09T01:34:38;3.87;;;1.10;;
74347;SDS011;62778;50.406;10.008;2022-09-09T01:35:43;4.50;;;1.00;;
74347;SDS011;62778;50.406;10.008;2022-09-09T01:37:37;4.88;;;1.27;;
74347;SDS011;62778;50.406;10.008;2022-09-09T01:38:33;5.03;;;1.40;;
74347;SDS011;62778;50.406;10.008;2022-09-09T01:39:29;4.82;;;1.50;;
74347;SDS011;62778;50.406;10.008;2022-09-09T01:40:25;5.13;;;1.55;;
74347;SDS011;62778;50.406;10.008;2022-09-09T01:41:21;5.35;;;1.23;;
74347;SDS011;62778;50.406;10.008;2022-09-09T01:42:16;4.57;;;1.40;;
74347;SDS011;62778;50.406;10.008;2022-09-09T01:43:12;5.95;;;1.77;;
74347;SDS011;62778;50.406;10.008;2022-09-09T01:44:08;6.30;;;3.27;;
74347;SDS011;62778;50.406;10.008;2022-09-09T01:45:05;7.10;;;3.40;;
74347;SDS011;62778;50.406;10.008;2022-09-09T01:46:01;7.13;;;3.55;;
74347;SDS011;62778;50.406;10.008;2022-09-09T01:46:57;6.75;;;3.70;;
74347;SDS011;62778;50.406;10.008;2022-09-09T01:47:52;6.50;;;2.50;;
74347;SDS011;62778;50.406;10.008;2022-09-09T01:48:49;5.65;;;2.15;;
74347;SDS011;62778;50.406;10.008;2022-09-09T01:49:46;5.82;;;2.03;;
74347;SDS011;62778;50.406;10.008;2022-09-09T01:50:41;7.00;;;2.50;;
74347;SDS011;62778;50.406;10.008;2022-09-09T01:51:36;5.90;;;2.20;;
74347;SDS011;62778;50.406;10.008;2022-09-09T01:52:34;4.57;;;1.67;;
74347;SDS011;62778;50.406;10.008;2022-09-09T01:53:30;4.30;;;1.52;;
74347;SDS011;62778;50.406;10.008;2022-09-09T01:54:26;5.20;;;1.90;;
74347;SDS011;62778;50.406;10.008;2022-09-09T01:55:35;5.67;;;2.00;;
74347;SDS011;62778;50.406;10.008;2022-09-09T02:00:30;4.45;;;1.42;;
74347;SDS011;62778;50.406;10.008;2022-09-09T02:02:39;5.30;;;1.52;;
74347;SDS011;62778;50.406;10.008;2022-09-09T02:03:53;5.53;;;1.92;;
74347;SDS011;62778;50.406;10.008;2022-09-09T02:04:56;5.93;;;1.75;;
74347;SDS011;62778;50.406;10.008;2022-09-09T02:07:39;4.83;;;1.20;;
74347;SDS011;62778;50.406;10.008;2022-09-09T02:09:37;5.43;;;1.50;;
74347;SDS011;62778;50.406;10.008;2022-09-09T02:10:40;5.25;;;1.27;;
74347;SDS011;62778;50.406;10.008;2022-09-09T02:11:59;4.28;;;1.05;;
74347;SDS011;62778;50.406;10.008;2022-09-09T02:13:07;5.47;;;1.20;;
74347;SDS011;62778;50.406;10.008;2022-09-09T02:14:08;4.53;;;1.08;;
74347;SDS011;62778;50.406;10.008;2022-09-09T02:15:20;4.88;;;1.20;;
74347;SDS011;62778;50.406;10.008;2022-09-09T02:16:30;5.32;;;1.30;;
74347;SDS011;62778;50.406;10.008;2022-09-09T02:17:30;4.22;;;1.20;;
74347;SDS011;62778;50.406;10.008;2022-09-09T02:18:48;5.30;;;1.30;;
74347;SDS011;62778;50.406;10.008;2022-09-09T02:19:48;4.88;;;0.95;;
74347;SDS011;62778;50.406;10.008;2022-09-09T02:20:45;5.07;;;1.30;;
74347;SDS011;62778;50.406;10.008;2022-09-09T02:21:42;4.82;;;1.30;;
74347;SDS011;62778;50.406;10.008;2022-09-09T02:22:39;5.63;;;1.67;;
74347;SDS011;62778;50.406;10.008;2022-09-09T02:23:36;4.75;;;1.60;;
74347;SDS011;62778;50.406;10.008;2022-09-09T02:24:35;4.45;;;1.35;;
74347;SDS011;62778;50.406;10.008;2022-09-09T02:25:32;4.78;;;1.70;;
74347;SDS011;62778;50.406;10.008;2022-09-09T02:26:28;6.63;;;1.70;;
74347;SDS011;62778;50.406;10.008;2022-09-09T02:27:24;4.83;;;1.23;;
74347;SDS011;62778;50.406;10.008;2022-09-09T02:28:19;5.13;;;1.40;;
74347;SDS011;62778;50.406;10.008;2022-09-09T02:29:18;4.22;;;1.30;;
74347;SDS011;62778;50.406;10.008;2022-09-09T02:30:17;5.93;;;1.30;;
74347;SDS011;62778;50.406;10.008;2022-09-09T02:31:14;4.43;;;1.30;;
74347;SDS011;62778;50.406;10.008;2022-09-09T02:32:11;6.50;;;1.58;;
74347;SDS011;62778;50.406;10.008;2022-09-09T02:33:10;4.53;;;1.30;;
74347;SDS011;62778;50.406;10.008;2022-09-09T02:34:07;4.30;;;1.25;;
74347;SDS011;62778;50.406;10.008;2022-09-09T02:35:07;4.32;;;1.20;;
74347;SDS011;62778;50.406;10.008;2022-09-09T02:36:04;4.28;;;1.17;;
74347;SDS011;62778;50.406;10.008;2022-09-09T02:37:01;4.80;;;1.40;;
74347;SDS011;62778;50.406;10.008;2022-09-09T02:37:59;3.95;;;1.05;;
74347;SDS011;62778;50.406;10.008;2022-09-09T02:38:56;5.20;;;1.30;;
74347;SDS011;62778;50.406;10.008;2022-09-09T02:39:52;4.10;;;1.00;;
74347;SDS011;62778;50.406;10.008;2022-09-09T02:40:47;4.70;;;1.10;;
74347;SDS011;62778;50.406;10.008;2022-09-09T02:41:43;4.35;;;1.40;;
74347;SDS011;62778;50.406;10.008;2022-09-09T02:42:39;4.37;;;1.50;;
74347;SDS011;62778;50.406;10.008;2022-09-09T02:43:35;4.80;;;1.30;;
74347;SDS011;62778;50.406;10.008;2022-09-09T02:44:31;5.10;;;1.40;;
74347;SDS011;62778;50.406;10.008;2022-09-09T02:45:29;4.75;;;1.58;;
74347;SDS011;62778;50.406;10.008;2022-09-09T02:48:26;4.72;;;1.20;;
74347;SDS011;62778;50.406;10.008;2022-09-09T02:50:49;4.32;;;1.55;;
74347;SDS011;62778;50.406;10.008;2022-09-09T02:51:53;4.90;;;1.60;;
74347;SDS011;62778;50.406;10.008;2022-09-09T02:54:12;5.78;;;1.80;;
74347;SDS011;62778;50.406;10.008;2022-09-09T02:55:14;5.37;;;1.80;;
74347;SDS011;62778;50.406;10.008;2022-09-09T02:56:17;5.30;;;1.50;;
74347;SDS011;62778;50.406;10.008;2022-09-09T02:57:21;5.85;;;1.50;;
74347;SDS011;62778;50.406;10.008;2022-09-09T02:58:18;5.28;;;1.20;;
74347;SDS011;62778;50.406;10.008;2022-09-09T02:59:13;6.13;;;1.70;;
74347;SDS011;62778;50.406;10.008;2022-09-09T03:00:09;6.20;;;2.17;;
74347;SDS011;62778;50.406;10.008;2022-09-09T03:01:06;5.57;;;1.65;;
74347;SDS011;62778;50.406;10.008;2022-09-09T03:02:01;5.13;;;1.50;;
74347;SDS011;62778;50.406;10.008;2022-09-09T03:02:57;4.30;;;1.38;;
74347;SDS011;62778;50.406;10.008;2022-09-09T03:03:53;6.67;;;2.03;;
74347;SDS011;62778;50.406;10.008;2022-09-09T03:04:50;6.30;;;2.10;;
74347;SDS011;62778;50.406;10.008;2022-09-09T03:05:46;6.07;;;1.90;;
74347;SDS011;62778;50.406;10.008;2022-09-09T03:06:42;5.80;;;1.73;;
74347;SDS011;62778;50.406;10.008;2022-09-09T03:07:38;6.38;;;2.20;;
74347;SDS011;62778;50.406;10.008;2022-09-09T03:08:34;6.18;;;2.10;;
74347;SDS011;62778;50.406;10.008;2022-09-09T03:09:30;6.00;;;2.08;;
74347;SDS011;62778;50.406;10.008;2022-09-09T03:10:27;5.28;;;1.80;;
74347;SDS011;62778;50.406;10.008;2022-09-09T03:11:22;4.77;;;1.43;;
74347;SDS011;62778;50.406;10.008;2022-09-09T03:12:18;4.83;;;1.60;;
74347;SDS011;62778;50.406;10.008;2022-09-09T03:13:13;7.17;;;1.70;;
74347;SDS011;62778;50.406;10.008;2022-09-09T03:14:10;5.25;;;1.48;;
74347;SDS011;62778;50.406;10.008;2022-09-09T03:15:06;5.28;;;1.70;;
74347;SDS011;62778;50.406;10.008;2022-09-09T03:16:02;4.95;;;1.40;;
74347;SDS011;62778;50.406;10.008;2022-09-09T03:16:58;4.80;;;1.38;;
74347;SDS011;62778;50.406;10.008;2022-09-09T03:17:55;4.38;;;1.70;;
74347;SDS011;62778;50.406;10.008;2022-09-09T03:18:52;6.68;;;1.63;;
74347;SDS011;62778;50.406;10.008;2022-09-09T03:19:47;5.83;;;1.60;;
74347;SDS011;62778;50.406;10.008;2022-09-09T03:20:45;6.15;;;1.50;;
74347;SDS011;62778;50.406;10.008;2022-09-09T03:21:43;4.90;;;1.70;;
74347;SDS011;62778;50.406;10.008;2022-09-09T03:22:38;4.63;;;1.27;;
74347;SDS011;62778;50.406;10.008;2022-09-09T03:23:34;4.47;;;1.30;;
74347;SDS011;62778;50.406;10.008;2022-09-09T03:24:29;5.03;;;1.73;;
74347;SDS011;62778;50.406;10.008;2022-09-09T03:25:25;4.47;;;1.50;;
74347;SDS011;62778;50.406;10.008;2022-09-09T03:26:20;4.75;;;1.48;;
74347;SDS011;62778;50.406;10.008;2022-09-09T03:27:16;4.43;;;1.40;;
74347;SDS011;62778;50.406;10.008;2022-09-09T03:28:12;5.05;;;1.67;;
74347;SDS011;62778;50.406;10.008;2022-09-09T03:29:07;4.93;;;1.60;;
74347;SDS011;62778;50.406;10.008;2022-09-09T03:30:03;4.27;;;1.50;;
74347;SDS011;62778;50.406;10.008;2022-09-09T03:31:02;5.78;;;1.77;;
74347;SDS011;62778;50.406;10.008;2022-09-09T03:31:59;4.60;;;1.63;;
74347;SDS011;62778;50.406;10.008;2022-09-09T03:32:54;5.30;;;1.50;;
74347;SDS011;62778;50.406;10.008;2022-09-09T03:33:52;5.03;;;1.70;;
74347;SDS011;62778;50.406;10.008;2022-09-09T03:34:48;5.30;;;1.50;;
74347;SDS011;62778;50.406;10.008;2022-09-09T03:35:45;4.40;;;1.77;;
74347;SDS011;62778;50.406;10.008;2022-09-09T03:36:42;4.78;;;1.55;;
74347;SDS011;62778;50.406;10.008;2022-09-09T03:37:37;5.90;;;1.77;;
74347;SDS011;62778;50.406;10.008;2022-09-09T03:38:33;4.22;;;1.40;;
74347;SDS011;62778;50.406;10.008;2022-09-09T03:39:29;4.32;;;1.50;;
74347;SDS011;62778;50.406;10.008;2022-09-09T03:40:24;4.80;;;1.27;;
74347;SDS011;62778;50.406;10.008;2022-09-09T03:41:20;5.50;;;1.37;;
74347;SDS011;62778;50.406;10.008;2022-09-09T03:42:18;7.70;;;1.95;;
74347;SDS011;62778;50.406;10.008;2022-09-09T03:43:14;4.50;;;1.53;;
74347;SDS011;62778;50.406;10.008;2022-09-09T03:44:11;5.32;;;2.00;;
74347;SDS011;62778;50.406;10.008;2022-09-09T03:45:07;4.97;;;1.97;;
74347;SDS011;62778;50.406;10.008;2022-09-09T03:46:04;4.68;;;1.80;;
74347;SDS011;62778;50.406;10.008;2022-09-09T03:46:59;5.38;;;1.88;;
74347;SDS011;62778;50.406;10.008;2022-09-09T03:48:00;5.07;;;1.63;;
74347;SDS011;62778;50.406;10.008;2022-09-09T03:48:55;4.47;;;1.87;;
74347;SDS011;62778;50.406;10.008;2022-09-09T03:49:52;4.85;;;1.90;;
74347;SDS011;62778;50.406;10.008;2022-09-09T03:50:47;4.40;;;1.53;;
74347;SDS011;62778;50.406;10.008;2022-09-09T03:51:44;4.78;;;1.50;;
74347;SDS011;62778;50.406;10.008;2022-09-09T03:52:39;5.00;;;1.60;;
74347;SDS011;62778;50.406;10.008;2022-09-09T03:53:36;5.82;;;1.60;;
74347;SDS011;62778;50.406;10.008;2022-09-09T03:54:32;5.60;;;1.90;;
74347;SDS011;62778;50.406;10.008;2022-09-09T03:55:28;5.07;;;1.70;;
74347;SDS011;62778;50.406;10.008;2022-09-09T03:56:23;4.97;;;1.30;;
74347;SDS011;62778;50.406;10.008;2022-09-09T03:57:19;4.10;;;1.40;;
74347;SDS011;62778;50.406;10.008;2022-09-09T03:58:15;4.50;;;1.50;;
74347;SDS011;62778;50.406;10.008;2022-09-09T03:59:11;7.03;;;1.88;;
74347;SDS011;62778;50.406;10.008;2022-09-09T04:00:06;4.90;;;1.50;;
74347;SDS011;62778;50.406;10.008;2022-09-09T04:01:04;4.43;;;1.50;;
74347;SDS011;62778;50.406;10.008;2022-09-09T04:02:00;5.07;;;1.77;;
74347;SDS011;62778;50.406;10.008;2022-09-09T04:02:57;4.72;;;1.60;;
74347;SDS011;62778;50.406;10.008;2022-09-09T04:03:52;5.70;;;2.00;;
74347;SDS011;62778;50.406;10.008;2022-09-09T04:04:47;4.77;;;1.90;;
74347;SDS011;62778;50.406;10.008;2022-09-09T04:05:43;4.93;;;1.60;;
74347;SDS011;62778;50.406;10.008;2022-09-09T04:06:38;6.15;;;1.75;;
74347;SDS011;62778;50.406;10.008;2022-09-09T04:07:33;4.87;;;1.60;;
74347;SDS011;62778;50.406;10.008;2022-09-09T04:08:29;5.53;;;1.90;;
74347;SDS011;62778;50.406;10.008;2022-09-09T04:09:26;5.50;;;2.10;;
74347;SDS011;62778;50.406;10.008;2022-09-09T04:10:21;5.73;;;2.13;;
74347;SDS011;62778;50.406;10.008;2022-09-09T04:11:17;6.00;;;2.03;;
74347;SDS011;62778;50.406;10.008;2022-09-09T04:12:12;7.05;;;2.10;;
74347;SDS011;62778;50.406;10.008;2022-09-09T04:13:08;5.97;;;2.00;;
74347;SDS011;62778;50.406;10.008;2022-09-09T04:14:03;5.37;;;2.10;;
74347;SDS011;62778;50.406;10.008;2022-09-09T04:15:00;5.07;;;1.75;;
74347;SDS011;62778;50.406;10.008;2022-09-09T04:15:58;5.47;;;1.83;;
74347;SDS011;62778;50.406;10.008;2022-09-09T04:16:54;4.20;;;1.38;;
74347;SDS011;62778;50.406;10.008;2022-09-09T04:17:51;4.32;;;1.70;;
74347;SDS011;62778;50.406;10.008;2022-09-09T04:18:46;4.70;;;1.53;;
74347;SDS011;62778;50.406;10.008;2022-09-09T04:19:42;5.30;;;1.58;;
74347;SDS011;62778;50.406;10.008;2022-09-09T04:20:37;5.23;;;1.70;;
74347;SDS011;62778;50.406;10.008;2022-09-09T04:21:33;5.78;;;1.80;;
74347;SDS011;62778;50.406;10.008;2022-09-09T04:22:28;4.93;;;1.83;;
74347;SDS011;62778;50.406;10.008;2022-09-09T04:23:24;4.43;;;1.50;;
74347;SDS011;62778;50.406;10.008;2022-09-09T04:24:20;4.43;;;1.50;;
74347;SDS011;62778;50.406;10.008;2022-09-09T04:25:16;4.18;;;1.50;;
74347;SDS011;62778;50.406;10.008;2022-09-09T04:26:11;4.83;;;1.60;;
74347;SDS011;62778;50.406;10.008;2022-09-09T04:27:07;5.00;;;1.70;;
74347;SDS011;62778;50.406;10.008;2022-09-09T04:28:02;5.97;;;2.00;;
74347;SDS011;62778;50.406;10.008;2022-09-09T04:28:57;4.73;;;2.00;;
74347;SDS011;62778;50.406;10.008;2022-09-09T04:29:53;5.75;;;2.00;;
74347;SDS011;62778;50.406;10.008;2022-09-09T04:30:48;6.00;;;1.83;;
74347;SDS011;62778;50.406;10.008;2022-09-09T04:31:44;6.13;;;1.80;;
74347;SDS011;62778;50.406;10.008;2022-09-09T04:32:39;5.47;;;1.87;;
74347;SDS011;62778;50.406;10.008;2022-09-09T04:33:35;5.67;;;1.90;;
74347;SDS011;62778;50.406;10.008;2022-09-09T04:34:30;5.40;;;2.07;;
74347;SDS011;62778;50.406;10.008;2022-09-09T04:35:26;6.15;;;2.00;;
74347;SDS011;62778;50.406;10.008;2022-09-09T04:36:22;8.48;;;2.20;;
74347;SDS011;62778;50.406;10.008;2022-09-09T04:37:17;8.00;;;2.17;;
74347;SDS011;62778;50.406;10.008;2022-09-09T04:38:13;7.65;;;2.10;;
74347;SDS011;62778;50.406;10.008;2022-09-09T04:39:08;6.73;;;1.60;;
74347;SDS011;62778;50.406;10.008;2022-09-09T04:40:04;4.60;;;1.70;;
74347;SDS011;62778;50.406;10.008;2022-09-09T04:41:00;7.00;;;2.35;;
74347;SDS011;62778;50.406;10.008;2022-09-09T04:41:56;5.22;;;2.00;;
74347;SDS011;62778;50.406;10.008;2022-09-09T04:42:51;5.27;;;1.80;;
74347;SDS011;62778;50.406;10.008;2022-09-09T04:43:47;5.17;;;1.57;;
74347;SDS011;62778;50.406;10.008;2022-09-09T04:44:42;7.20;;;1.80;;
74347;SDS011;62778;50.406;10.008;2022-09-09T04:45:37;4.73;;;1.83;;
74347;SDS011;62778;50.406;10.008;2022-09-09T04:46:33;5.22;;;1.55;;
74347;SDS011;62778;50.406;10.008;2022-09-09T04:47:29;5.60;;;1.90;;
74347;SDS011;62778;50.406;10.008;2022-09-09T04:48:24;5.00;;;1.80;;
74347;SDS011;62778;50.406;10.008;2022-09-09T04:49:20;4.88;;;1.50;;
74347;SDS011;62778;50.406;10.008;2022-09-09T04:50:15;5.67;;;1.70;;
74347;SDS011;62778;50.406;10.008;2022-09-09T04:51:12;5.50;;;1.60;;
74347;SDS011;62778;50.406;10.008;2022-09-09T04:52:08;6.60;;;1.80;;
74347;SDS011;62778;50.406;10.008;2022-09-09T04:53:04;6.03;;;1.60;;
74347;SDS011;62778;50.406;10.008;2022-09-09T04:54:00;4.85;;;1.50;;
74347;SDS011;62778;50.406;10.008;2022-09-09T04:54:55;7.40;;;2.77;;
74347;SDS011;62778;50.406;10.008;2022-09-09T04:55:51;6.73;;;3.07;;
74347;SDS011;62778;50.406;10.008;2022-09-09T04:56:49;6.97;;;3.40;;
74347;SDS011;62778;50.406;10.008;2022-09-09T04:57:45;9.48;;;5.57;;
74347;SDS011;62778;50.406;10.008;2022-09-09T04:58:41;7.85;;;3.40;;
74347;SDS011;62778;50.406;10.008;2022-09-09T04:59:40;5.25;;;2.30;;
74347;SDS011;62778;50.406;10.008;2022-09-09T05:00:35;6.53;;;2.43;;
74347;SDS011;62778;50.406;10.008;2022-09-09T05:01:32;6.78;;;2.80;;
74347;SDS011;62778;50.406;10.008;2022-09-09T05:02:27;5.63;;;2.40;;
74347;SDS011;62778;50.406;10.008;2022-09-09T05:03:22;5.47;;;2.03;;
74347;SDS011;62778;50.406;10.008;2022-09-09T05:04:18;5.53;;;2.60;;
74347;SDS011;62778;50.406;10.008;2022-09-09T05:05:14;7.85;;;2.78;;
74347;SDS011;62778;50.406;10.008;2022-09-09T05:06:10;4.55;;;1.90;;
74347;SDS011;62778;50.406;10.008;2022-09-09T05:07:07;6.00;;;2.20;;
74347;SDS011;62778;50.406;10.008;2022-09-09T05:08:06;4.73;;;1.67;;
74347;SDS011;62778;50.406;10.008;2022-09-09T05:09:03;4.90;;;1.80;;
74347;SDS011;62778;50.406;10.008;2022-09-09T05:09:58;4.57;;;1.70;;
74347;SDS011;62778;50.406;10.008;2022-09-09T05:10:53;4.88;;;1.50;;
74347;SDS011;62778;50.406;10.008;2022-09-09T05:11:50;5.13;;;1.50;;
74347;SDS011;62778;50.406;10.008;2022-09-09T05:12:51;4.40;;;1.50;;
74347;SDS011;62778;50.406;10.008;2022-09-09T05:13:48;4.93;;;1.58;;
74347;SDS011;62778;50.406;10.008;2022-09-09T05:14:45;5.10;;;1.88;;
74347;SDS011;62778;50.406;10.008;2022-09-09T05:15:40;4.30;;;1.50;;
74347;SDS011;62778;50.406;10.008;2022-09-09T05:16:38;4.75;;;1.70;;
74347;SDS011;62778;50.406;10.008;2022-09-09T05:17:33;5.77;;;1.67;;
74347;SDS011;62778;50.406;10.008;2022-09-09T05:18:28;4.70;;;1.83;;
74347;SDS011;62778;50.406;10.008;2022-09-09T05:19:24;5.83;;;1.67;;
74347;SDS011;62778;50.406;10.008;2022-09-09T05:20:19;5.15;;;1.60;;
74347;SDS011;62778;50.406;10.008;2022-09-09T05:21:15;5.83;;;2.20;;
74347;SDS011;62778;50.406;10.008;2022-09-09T05:22:11;5.30;;;2.05;;
74347;SDS011;62778;50.406;10.008;2022-09-09T05:23:07;4.35;;;1.80;;
74347;SDS011;62778;50.406;10.008;2022-09-09T05:24:03;4.10;;;1.48;;
74347;SDS011;62778;50.406;10.008;2022-09-09T05:24:58;4.40;;;1.50;;
74347;SDS011;62778;50.406;10.008;2022-09-09T05:25:57;4.83;;;1.60;;
74347;SDS011;62778;50.406;10.008;2022-09-09T05:26:52;5.68;;;1.77;;
74347;SDS011;62778;50.406;10.008;2022-09-09T05:27:48;4.70;;;1.70;;
74347;SDS011;62778;50.406;10.008;2022-09-09T05:28:44;4.35;;;1.90;;
74347;SDS011;62778;50.406;10.008;2022-09-09T05:29:40;6.00;;;2.17;;
74347;SDS011;62778;50.406;10.008;2022-09-09T05:30:38;8.13;;;2.50;;
74347;SDS011;62778;50.406;10.008;2022-09-09T05:31:33;6.97;;;2.30;;
74347;SDS011;62778;50.406;10.008;2022-09-09T05:32:29;5.80;;;2.27;;
74347;SDS011;62778;50.406;10.008;2022-09-09T05:33:27;5.57;;;2.60;;
74347;SDS011;62778;50.406;10.008;2022-09-09T05:34:23;6.25;;;2.53;;
74347;SDS011;62778;50.406;10.008;2022-09-09T05:35:18;6.30;;;2.40;;
74347;SDS011;62778;50.406;10.008;2022-09-09T05:36:15;5.70;;;2.35;;
74347;SDS011;62778;50.406;10.008;2022-09-09T05:37:12;5.03;;;1.92;;
74347;SDS011;62778;50.406;10.008;2022-09-09T05:38:07;5.00;;;1.93;;
74347;SDS011;62778;50.406;10.008;2022-09-09T05:39:03;6.00;;;2.00;;
74347;SDS011;62778;50.406;10.008;2022-09-09T05:39:59;6.13;;;1.80;;
74347;SDS011;62778;50.406;10.008;2022-09-09T05:40:55;5.97;;;1.83;;
74347;SDS011;62778;50.406;10.008;2022-09-09T05:41:53;5.45;;;2.30;;
74347;SDS011;62778;50.406;10.008;2022-09-09T05:42:49;5.33;;;2.20;;
74347;SDS011;62778;50.406;10.008;2022-09-09T05:43:44;4.65;;;1.60;;
74347;SDS011;62778;50.406;10.008;2022-09-09T05:44:40;4.70;;;1.70;;
74347;SDS011;62778;50.406;10.008;2022-09-09T05:45:37;4.33;;;1.80;;
74347;SDS011;62778;50.406;10.008;2022-09-09T05:46:32;5.03;;;1.50;;
74347;SDS011;62778;50.406;10.008;2022-09-09T05:47:28;4.80;;;1.80;;
74347;SDS011;62778;50.406;10.008;2022-09-09T05:48:23;5.20;;;1.60;;
74347;SDS011;62778;50.406;10.008;2022-09-09T05:49:18;5.47;;;2.10;;
74347;SDS011;62778;50.406;10.008;2022-09-09T05:50:13;5.07;;;1.80;;
74347;SDS011;62778;50.406;10.008;2022-09-09T05:51:10;4.50;;;1.83;;
74347;SDS011;62778;50.406;10.008;2022-09-09T05:52:07;5.00;;;1.65;;
74347;SDS011;62778;50.406;10.008;2022-09-09T05:53:04;6.35;;;1.80;;
74347;SDS011;62778;50.406;10.008;2022-09-09T05:53:59;6.73;;;2.00;;
74347;SDS011;62778;50.406;10.008;2022-09-09T05:54:54;5.28;;;1.90;;
74347;SDS011;62778;50.406;10.008;2022-09-09T05:56:25;5.57;;;1.77;;
74347;SDS011;62778;50.406;10.008;2022-09-09T05:57:14;4.50;;;1.80;;
74347;SDS011;62778;50.406;10.008;2022-09-09T05:58:09;7.88;;;2.10;;
74347;SDS011;62778;50.406;10.008;2022-09-09T05:59:05;5.03;;;2.00;;
74347;SDS011;62778;50.406;10.008;2022-09-09T06:00:01;5.88;;;1.70;;
74347;SDS011;62778;50.406;10.008;2022-09-09T06:01:04;4.90;;;2.00;;
74347;SDS011;62778;50.406;10.008;2022-09-09T06:02:02;4.97;;;2.00;;
74347;SDS011;62778;50.406;10.008;2022-09-09T06:02:57;4.73;;;1.73;;
74347;SDS011;62778;50.406;10.008;2022-09-09T06:03:52;4.57;;;1.80;;
74347;SDS011;62778;50.406;10.008;2022-09-09T06:04:48;4.97;;;1.90;;
74347;SDS011;62778;50.406;10.008;2022-09-09T06:05:43;7.73;;;2.30;;
74347;SDS011;62778;50.406;10.008;2022-09-09T06:06:38;4.70;;;1.70;;
74347;SDS011;62778;50.406;10.008;2022-09-09T06:07:34;5.07;;;1.80;;
74347;SDS011;62778;50.406;10.008;2022-09-09T06:08:30;5.50;;;2.20;;
74347;SDS011;62778;50.406;10.008;2022-09-09T06:09:26;5.10;;;1.92;;
74347;SDS011;62778;50.406;10.008;2022-09-09T06:10:22;5.40;;;2.05;;
74347;SDS011;62778;50.406;10.008;2022-09-09T06:11:18;4.70;;;1.97;;
74347;SDS011;62778;50.406;10.008;2022-09-09T06:12:14;5.10;;;2.30;;
74347;SDS011;62778;50.406;10.008;2022-09-09T06:13:10;5.83;;;2.20;;
74347;SDS011;62778;50.406;10.008;2022-09-09T06:14:05;5.85;;;2.08;;
74347;SDS011;62778;50.406;10.008;2022-09-09T06:15:01;4.97;;;2.00;;
74347;SDS011;62778;50.406;10.008;2022-09-09T06:15:56;5.53;;;2.07;;
74347;SDS011;62778;50.406;10.008;2022-09-09T06:16:53;5.65;;;1.90;;
74347;SDS011;62778;50.406;10.008;2022-09-09T06:17:53;5.10;;;1.90;;
74347;SDS011;62778;50.406;10.008;2022-09-09T06:18:50;6.10;;;2.00;;
74347;SDS011;62778;50.406;10.008;2022-09-09T06:19:45;4.70;;;1.50;;
74347;SDS011;62778;50.406;10.008;2022-09-09T06:20:41;6.33;;;2.33;;
74347;SDS011;62778;50.406;10.008;2022-09-09T06:21:36;4.37;;;1.83;;
74347;SDS011;62778;50.406;10.008;2022-09-09T06:22:32;5.40;;;1.63;;
74347;SDS011;62778;50.406;10.008;2022-09-09T06:23:27;4.13;;;1.58;;
74347;SDS011;62778;50.406;10.008;2022-09-09T06:24:23;4.67;;;1.90;;
74347;SDS011;62778;50.406;10.008;2022-09-09T06:25:18;4.30;;;1.37;;